createdAt,value
2022-07-29T00:00:01.382Z,19.32
2022-07-29T00:02:28.980Z,19.29
2022-07-29T00:04:55.670Z,18.86
2022-07-29T00:07:22.344Z,18.62
2022-07-29T00:09:51.562Z,18.54
2022-07-29T00:12:26.318Z,18.54
2022-07-29T00:14:55.415Z,18.55
2022-07-29T00:17:22.434Z,18.67
2022-07-29T00:19:49.110Z,18.61
2022-07-29T00:22:15.750Z,18.47
2022-07-29T00:24:42.362Z,18.40
2022-07-29T00:27:09.110Z,18.23
2022-07-29T00:29:35.833Z,18.25
2022-07-29T00:32:03.473Z,18.16
2022-07-29T00:34:48.939Z,18.09
2022-07-29T00:37:15.545Z,17.77
2022-07-29T00:39:42.159Z,17.65
2022-07-29T00:42:09.194Z,17.54
2022-07-29T00:44:40.546Z,17.32
2022-07-29T00:47:08.519Z,17.39
2022-07-29T00:49:35.991Z,17.37
2022-07-29T00:52:04.286Z,17.28
2022-07-29T00:54:31.308Z,17.35
2022-07-29T00:57:01.504Z,17.35
2022-07-29T00:59:35.028Z,17.32
2022-07-29T01:02:04.152Z,17.33
2022-07-29T01:04:32.518Z,17.42
2022-07-29T01:07:01.615Z,17.48
2022-07-29T01:09:43.230Z,17.50
2022-07-29T01:12:21.091Z,17.40
2022-07-29T01:14:49.780Z,17.44
2022-07-29T01:17:24.201Z,17.37
2022-07-29T01:20:19.824Z,17.57
2022-07-29T01:22:58.389Z,17.62
2022-07-29T01:26:05.277Z,17.68
2022-07-29T01:28:53.788Z,17.72
2022-07-29T01:31:36.639Z,17.83
2022-07-29T01:34:12.252Z,17.87
2022-07-29T01:36:47.963Z,17.95
2022-07-29T01:39:42.479Z,18.02
2022-07-29T01:42:12.175Z,18.00
2022-07-29T01:45:11.076Z,17.97
2022-07-29T01:47:47.611Z,18.04
2022-07-29T01:50:18.779Z,18.12
2022-07-29T01:53:01.286Z,18.13
2022-07-29T01:55:36.184Z,18.19
2022-07-29T01:58:06.375Z,18.24
2022-07-29T02:00:35.163Z,18.27
2022-07-29T02:03:05.245Z,18.32
2022-07-29T02:05:34.351Z,18.34
2022-07-29T02:08:03.013Z,18.35
2022-07-29T02:10:32.361Z,18.34
2022-07-29T02:13:00.439Z,18.42
2022-07-29T02:15:29.791Z,18.45
2022-07-29T02:18:01.207Z,18.41
2022-07-29T02:20:29.924Z,18.32
2022-07-29T02:22:58.284Z,18.31
2022-07-29T02:25:36.796Z,18.23
2022-07-29T02:28:06.200Z,18.26
2022-07-29T02:30:34.072Z,18.16
2022-07-29T02:33:01.882Z,18.09
2022-07-29T02:35:29.339Z,18.04
2022-07-29T02:38:21.599Z,18.04
2022-07-29T02:40:50.843Z,18.17
2022-07-29T02:43:19.830Z,18.12
2022-07-29T02:45:51.682Z,18.02
2022-07-29T02:48:24.347Z,18.01
2022-07-29T02:50:56.646Z,18.05
2022-07-29T02:53:28.122Z,18.01
2022-07-29T02:56:00.016Z,18.00
2022-07-29T02:58:38.220Z,17.95
2022-07-29T03:01:13.438Z,17.79
2022-07-29T03:03:45.904Z,17.70
2022-07-29T03:06:37.831Z,17.70
2022-07-29T03:09:05.003Z,17.67
2022-07-29T03:11:45.885Z,17.63
2022-07-29T03:14:20.489Z,17.53
2022-07-29T03:16:48.645Z,17.49
2022-07-29T03:19:16.041Z,17.41
2022-07-29T03:21:42.747Z,17.55
2022-07-29T03:24:10.766Z,17.58
2022-07-29T03:26:39.296Z,17.44
2022-07-29T03:29:05.923Z,17.48
2022-07-29T03:31:33.722Z,17.53
2022-07-29T03:34:01.021Z,17.59
2022-07-29T03:36:27.874Z,17.55
2022-07-29T03:38:55.642Z,17.56
2022-07-29T03:41:24.065Z,17.52
2022-07-29T03:43:52.621Z,17.30
2022-07-29T03:46:24.332Z,17.30
2022-07-29T03:48:56.024Z,17.30
2022-07-29T03:51:31.580Z,17.29
2022-07-29T03:54:00.736Z,17.32
2022-07-29T03:56:29.928Z,17.49
2022-07-29T03:58:57.111Z,17.93
2022-07-29T04:01:24.961Z,18.45
2022-07-29T04:03:52.471Z,18.51
2022-07-29T04:06:19.204Z,18.40
2022-07-29T04:08:45.916Z,18.58
2022-07-29T04:11:13.816Z,18.60
2022-07-29T04:13:40.409Z,18.64
2022-07-29T04:16:07.277Z,18.68
2022-07-29T04:18:34.077Z,18.73
2022-07-29T04:21:01.867Z,18.84
2022-07-29T04:23:33.453Z,18.92
2022-07-29T04:26:02.132Z,18.97
2022-07-29T04:28:29.147Z,19.06
2022-07-29T04:30:55.816Z,19.15
2022-07-29T04:33:22.531Z,19.09
2022-07-29T04:35:52.689Z,19.64
2022-07-29T04:38:23.151Z,19.71
2022-07-29T04:40:49.964Z,19.73
2022-07-29T04:43:16.919Z,19.89
2022-07-29T04:45:49.530Z,20.07
2022-07-29T04:48:16.161Z,20.16
2022-07-29T04:50:43.172Z,19.88
2022-07-29T04:53:09.862Z,19.67
2022-07-29T04:55:38.887Z,19.61
2022-07-29T04:58:05.896Z,19.67
2022-07-29T05:00:33.603Z,19.61
2022-07-29T05:03:00.663Z,19.64
2022-07-29T05:05:27.632Z,19.82
2022-07-29T05:07:54.272Z,19.94
2022-07-29T05:10:20.943Z,20.25
2022-07-29T05:12:47.700Z,20.15
2022-07-29T05:15:14.656Z,20.15
2022-07-29T05:17:41.596Z,20.82
2022-07-29T05:20:09.304Z,21.28
2022-07-29T05:22:36.225Z,21.35
2022-07-29T05:25:08.887Z,21.19
2022-07-29T05:27:36.941Z,21.26
2022-07-29T05:30:04.165Z,20.95
2022-07-29T05:32:30.837Z,20.97
2022-07-29T05:34:57.476Z,21.40
2022-07-29T05:37:24.130Z,21.83
2022-07-29T05:39:57.158Z,21.85
2022-07-29T05:42:25.291Z,21.92
2022-07-29T05:44:52.452Z,22.33
2022-07-29T05:47:19.770Z,22.42
2022-07-29T05:49:47.131Z,22.65
2022-07-29T05:52:14.437Z,22.78
2022-07-29T05:54:41.208Z,23.17
2022-07-29T05:57:08.399Z,23.52
2022-07-29T05:59:38.536Z,24.01
2022-07-29T06:02:06.249Z,24.29
2022-07-29T06:04:34.679Z,24.17
2022-07-29T06:07:01.467Z,24.50
2022-07-29T06:09:29.262Z,24.46
2022-07-29T06:11:56.082Z,24.58
2022-07-29T06:14:22.749Z,24.46
2022-07-29T06:16:49.418Z,24.69
2022-07-29T06:19:16.834Z,24.84
2022-07-29T06:21:44.569Z,24.76
2022-07-29T06:24:15.774Z,25.05
2022-07-29T06:26:43.396Z,24.98
2022-07-29T06:29:11.709Z,25.14
2022-07-29T06:31:38.936Z,25.43
2022-07-29T06:34:05.667Z,25.26
2022-07-29T06:36:35.880Z,25.61
2022-07-29T06:39:08.632Z,25.86
2022-07-29T06:41:36.539Z,25.88
2022-07-29T06:44:03.570Z,25.50
2022-07-29T06:46:30.272Z,25.78
2022-07-29T06:48:56.980Z,26.19
2022-07-29T06:51:24.257Z,26.42
2022-07-29T06:53:58.258Z,26.61
2022-07-29T06:56:26.687Z,26.52
2022-07-29T06:58:53.356Z,26.75
2022-07-29T07:01:20.859Z,26.48
2022-07-29T07:03:48.875Z,26.29
2022-07-29T07:06:15.724Z,26.36
2022-07-29T07:08:42.454Z,26.18
2022-07-29T07:11:09.734Z,26.49
2022-07-29T07:13:36.903Z,26.63
2022-07-29T07:16:04.982Z,27.00
2022-07-29T07:18:31.763Z,26.72
2022-07-29T07:20:58.929Z,26.83
2022-07-29T07:23:26.690Z,26.77
2022-07-29T07:25:53.776Z,26.47
2022-07-29T07:28:24.547Z,26.47
2022-07-29T07:30:52.692Z,26.56
2022-07-29T07:33:19.552Z,26.61
2022-07-29T07:35:46.327Z,26.84
2022-07-29T07:38:13.080Z,27.01
2022-07-29T07:40:39.988Z,27.32
2022-07-29T07:43:06.711Z,27.38
2022-07-29T07:45:38.151Z,27.04
2022-07-29T07:48:05.817Z,27.17
2022-07-29T07:50:32.993Z,27.24
2022-07-29T07:53:00.634Z,27.47
2022-07-29T07:55:27.563Z,27.36
2022-07-29T07:57:55.967Z,27.06
2022-07-29T08:00:23.868Z,27.26
2022-07-29T08:02:51.222Z,27.50
2022-07-29T08:05:18.399Z,27.23
2022-07-29T08:07:46.854Z,27.15
2022-07-29T08:10:15.251Z,27.17
2022-07-29T08:12:42.713Z,26.77
2022-07-29T08:15:09.898Z,26.57
2022-07-29T08:17:36.626Z,26.89
2022-07-29T08:20:03.876Z,27.06
2022-07-29T08:22:30.558Z,26.84
2022-07-29T08:24:57.243Z,27.22
2022-07-29T08:27:43.042Z,27.20
2022-07-29T08:30:11.350Z,27.39
2022-07-29T08:32:53.111Z,27.63
2022-07-29T08:35:23.450Z,27.46
2022-07-29T08:37:50.330Z,27.92
2022-07-29T08:40:17.327Z,28.35
2022-07-29T08:42:44.033Z,28.23
2022-07-29T08:45:10.900Z,28.26
2022-07-29T08:47:40.812Z,27.85
2022-07-29T08:50:09.674Z,28.38
2022-07-29T08:52:38.318Z,28.57
2022-07-29T08:55:09.991Z,28.40
2022-07-29T08:57:37.405Z,28.55
2022-07-29T09:00:11.762Z,28.33
2022-07-29T09:02:46.750Z,28.40
2022-07-29T09:05:14.460Z,28.42
2022-07-29T09:07:44.290Z,28.53
2022-07-29T09:10:11.440Z,28.30
2022-07-29T09:12:38.491Z,28.23
2022-07-29T09:15:05.503Z,28.51
2022-07-29T09:17:46.441Z,28.48
2022-07-29T09:20:17.150Z,28.63
2022-07-29T09:22:43.933Z,28.69
2022-07-29T09:25:13.280Z,28.51
2022-07-29T09:27:40.104Z,28.57
2022-07-29T09:30:11.726Z,28.29
2022-07-29T09:33:04.416Z,28.49
2022-07-29T09:35:31.796Z,28.73
2022-07-29T09:37:58.710Z,28.92
2022-07-29T09:40:28.619Z,28.91
2022-07-29T09:42:59.329Z,29.01
2022-07-29T09:45:29.300Z,28.96
2022-07-29T09:47:58.451Z,29.28
2022-07-29T09:50:39.878Z,29.57
2022-07-29T09:53:06.790Z,29.53
2022-07-29T09:55:33.602Z,29.32
2022-07-29T09:58:21.696Z,29.33
2022-07-29T10:00:50.746Z,29.32
2022-07-29T10:03:18.426Z,29.33
2022-07-29T10:05:46.188Z,29.45
2022-07-29T10:08:13.732Z,29.26
2022-07-29T10:10:45.567Z,29.12
2022-07-29T10:13:16.106Z,28.92
2022-07-29T10:15:46.837Z,29.31
2022-07-29T10:18:15.314Z,29.65
2022-07-29T10:20:42.528Z,29.38
2022-07-29T10:23:10.008Z,29.84
2022-07-29T10:25:36.652Z,30.36
2022-07-29T10:28:03.884Z,30.31
2022-07-29T10:30:30.709Z,29.96
2022-07-29T10:33:22.100Z,29.96
2022-07-29T10:36:07.451Z,30.13
2022-07-29T10:39:08.164Z,30.19
2022-07-29T10:41:48.127Z,29.91
2022-07-29T10:44:23.109Z,29.74
2022-07-29T10:46:51.738Z,29.82
2022-07-29T10:49:24.886Z,29.83
2022-07-29T10:52:02.529Z,29.74
2022-07-29T10:54:36.343Z,29.77
2022-07-29T10:57:14.068Z,29.68
2022-07-29T10:59:42.904Z,29.78
2022-07-29T11:02:46.928Z,29.80
2022-07-29T11:05:19.950Z,29.97
2022-07-29T11:08:19.641Z,30.08
2022-07-29T11:11:08.103Z,30.28
2022-07-29T11:13:49.422Z,30.10
2022-07-29T11:16:20.112Z,30.07
2022-07-29T11:19:06.370Z,30.33
2022-07-29T11:21:55.042Z,30.32
2022-07-29T11:24:33.052Z,30.31
2022-07-29T11:27:13.299Z,30.54
2022-07-29T11:29:48.363Z,30.39
2022-07-29T11:32:22.852Z,30.47
2022-07-29T11:35:17.194Z,30.60
2022-07-29T11:38:08.674Z,30.84
2022-07-29T11:40:37.846Z,31.09
2022-07-29T11:43:07.280Z,30.97
2022-07-29T11:45:48.113Z,31.03
2022-07-29T11:48:31.323Z,30.79
2022-07-29T11:51:00.412Z,30.94
2022-07-29T11:53:28.799Z,31.32
2022-07-29T11:56:00.271Z,31.39
2022-07-29T11:58:28.362Z,31.45
2022-07-29T12:00:56.306Z,31.22
2022-07-29T12:03:34.937Z,31.11
2022-07-29T12:06:02.647Z,31.24
2022-07-29T12:08:29.312Z,31.19
2022-07-29T12:10:55.947Z,31.33
2022-07-29T12:13:22.941Z,31.51
2022-07-29T12:16:04.977Z,31.26
2022-07-29T12:18:32.176Z,31.10
2022-07-29T12:21:04.992Z,31.26
2022-07-29T12:23:35.722Z,31.31
2022-07-29T12:26:07.467Z,31.30
2022-07-29T12:28:40.806Z,31.06
2022-07-29T12:31:15.098Z,31.46
2022-07-29T12:34:01.959Z,31.51
2022-07-29T12:36:28.741Z,31.58
2022-07-29T12:38:55.543Z,31.33
2022-07-29T12:41:23.259Z,31.11
2022-07-29T12:43:55.108Z,31.45
2022-07-29T12:46:22.153Z,31.68
2022-07-29T12:48:55.953Z,31.56
2022-07-29T12:51:32.079Z,31.49
2022-07-29T12:54:14.440Z,31.62
2022-07-29T12:56:44.479Z,31.63
2022-07-29T12:59:18.735Z,31.31
2022-07-29T13:01:48.989Z,30.97
2022-07-29T13:04:33.721Z,31.41
2022-07-29T13:07:09.200Z,31.55
2022-07-29T13:09:42.990Z,31.75
2022-07-29T13:12:11.861Z,31.89
2022-07-29T13:14:39.890Z,31.92
2022-07-29T13:17:06.597Z,31.88
2022-07-29T13:19:41.555Z,31.91
2022-07-29T13:22:13.118Z,31.99
2022-07-29T13:24:50.275Z,31.86
2022-07-29T13:27:21.972Z,32.12
2022-07-29T13:29:52.154Z,32.45
2022-07-29T13:32:19.933Z,32.46
2022-07-29T13:34:55.765Z,32.70
2022-07-29T13:37:22.519Z,32.30
2022-07-29T13:39:53.073Z,32.28
2022-07-29T13:42:20.233Z,32.55
2022-07-29T13:44:47.010Z,32.29
2022-07-29T13:47:13.931Z,32.22
2022-07-29T13:49:40.594Z,32.28
2022-07-29T13:52:08.391Z,32.13
2022-07-29T13:54:42.131Z,31.94
2022-07-29T13:57:11.838Z,31.91
2022-07-29T13:59:43.018Z,32.04
2022-07-29T14:02:10.792Z,32.05
2022-07-29T14:04:39.645Z,31.82
2022-07-29T14:07:06.958Z,31.80
2022-07-29T14:09:41.447Z,31.60
2022-07-29T14:12:09.203Z,31.33
2022-07-29T14:14:37.440Z,31.32
2022-07-29T14:17:04.563Z,31.11
2022-07-29T14:19:33.050Z,30.90
2022-07-29T14:22:00.204Z,30.90
2022-07-29T14:24:27.173Z,30.88
2022-07-29T14:26:53.989Z,30.79
2022-07-29T14:29:20.806Z,30.89
2022-07-29T14:31:47.515Z,30.87
2022-07-29T14:34:14.209Z,30.77
2022-07-29T14:36:40.870Z,30.87
2022-07-29T14:39:07.836Z,30.89
2022-07-29T14:41:34.526Z,30.89
2022-07-29T14:44:01.735Z,31.18
2022-07-29T14:46:29.028Z,31.47
2022-07-29T14:48:55.822Z,31.87
2022-07-29T14:51:22.503Z,32.07
2022-07-29T14:53:49.204Z,32.68
2022-07-29T14:56:35.997Z,33.08
2022-07-29T14:59:02.579Z,32.78
2022-07-29T15:01:30.194Z,32.95
2022-07-29T15:03:59.783Z,32.73
2022-07-29T15:06:27.504Z,32.59
2022-07-29T15:08:54.873Z,32.79
2022-07-29T15:11:21.618Z,32.85
2022-07-29T15:13:48.276Z,32.92
2022-07-29T15:16:14.943Z,33.11
2022-07-29T15:18:42.567Z,32.91
2022-07-29T15:21:09.352Z,32.73
2022-07-29T15:23:39.609Z,32.82
2022-07-29T15:26:06.296Z,32.70
2022-07-29T15:28:33.046Z,32.79
2022-07-29T15:30:59.696Z,32.70
2022-07-29T15:33:27.054Z,32.61
2022-07-29T15:35:53.637Z,32.51
2022-07-29T15:38:20.481Z,32.08
2022-07-29T15:40:55.831Z,31.97
2022-07-29T15:43:22.952Z,31.64
2022-07-29T15:46:08.676Z,31.86
2022-07-29T15:48:39.290Z,31.68
2022-07-29T15:51:06.234Z,31.40
2022-07-29T15:53:35.266Z,31.31
2022-07-29T15:56:02.206Z,31.09
2022-07-29T15:58:29.051Z,30.77
2022-07-29T16:00:55.987Z,30.66
2022-07-29T16:03:23.005Z,30.48
2022-07-29T16:05:49.679Z,30.37
2022-07-29T16:08:16.405Z,30.35
2022-07-29T16:10:43.033Z,30.25
2022-07-29T16:13:09.678Z,30.19
2022-07-29T16:15:36.277Z,30.16
2022-07-29T16:18:03.106Z,30.04
2022-07-29T16:20:30.216Z,30.05
2022-07-29T16:22:57.027Z,29.90
2022-07-29T16:25:38.411Z,29.90
2022-07-29T16:28:10.763Z,29.85
2022-07-29T16:30:37.521Z,29.72
2022-07-29T16:33:08.195Z,29.65
2022-07-29T16:35:39.647Z,29.48
2022-07-29T16:38:06.817Z,29.44
2022-07-29T16:40:33.487Z,29.48
2022-07-29T16:43:00.239Z,29.51
2022-07-29T16:45:28.044Z,29.50
2022-07-29T16:48:01.152Z,29.50
2022-07-29T16:50:28.874Z,29.46
2022-07-29T16:52:56.215Z,29.51
2022-07-29T16:55:23.358Z,29.44
2022-07-29T16:57:52.625Z,29.45
2022-07-29T17:00:21.124Z,29.46
2022-07-29T17:02:48.489Z,29.35
2022-07-29T17:05:15.918Z,29.38
2022-07-29T17:07:42.885Z,29.38
2022-07-29T17:10:10.474Z,29.34
2022-07-29T17:12:41.221Z,29.18
2022-07-29T17:15:10.830Z,29.16
2022-07-29T17:17:38.728Z,29.16
2022-07-29T17:20:08.838Z,29.10
2022-07-29T17:22:35.889Z,28.83
2022-07-29T17:25:04.701Z,28.80
2022-07-29T17:27:32.297Z,28.73
2022-07-29T17:29:59.255Z,28.76
2022-07-29T17:32:25.923Z,28.71
2022-07-29T17:34:52.892Z,28.74
2022-07-29T17:37:19.782Z,28.61
2022-07-29T17:39:46.452Z,28.45
2022-07-29T17:42:14.360Z,28.54
2022-07-29T17:44:41.547Z,28.45
2022-07-29T17:47:10.732Z,28.30
2022-07-29T17:49:43.785Z,28.21
2022-07-29T17:52:10.577Z,28.02
2022-07-29T17:54:37.248Z,28.02
2022-07-29T17:57:04.083Z,28.00
2022-07-29T17:59:30.882Z,27.91
2022-07-29T18:01:57.625Z,27.82
2022-07-29T18:04:25.048Z,27.73
2022-07-29T18:06:51.760Z,27.54
2022-07-29T18:09:18.669Z,27.51
2022-07-29T18:11:46.280Z,27.52
2022-07-29T18:14:13.632Z,27.55
2022-07-29T18:16:40.694Z,27.54
2022-07-29T18:19:07.545Z,27.47
2022-07-29T18:21:50.984Z,27.37
2022-07-29T18:24:25.571Z,27.37
2022-07-29T18:26:52.430Z,27.29
2022-07-29T18:29:19.159Z,27.20
2022-07-29T18:31:45.828Z,27.06
2022-07-29T18:34:12.509Z,26.92
2022-07-29T18:36:39.241Z,26.65
2022-07-29T18:39:05.873Z,26.66
2022-07-29T18:41:33.881Z,26.46
2022-07-29T18:44:00.998Z,26.14
2022-07-29T18:46:27.967Z,26.01
2022-07-29T18:48:57.353Z,26.15
2022-07-29T18:51:23.995Z,25.80
2022-07-29T18:53:50.626Z,25.72
2022-07-29T18:56:17.345Z,25.57
2022-07-29T18:58:43.959Z,25.57
2022-07-29T19:01:14.740Z,25.57
2022-07-29T19:03:43.418Z,25.51
2022-07-29T19:06:10.071Z,25.51
2022-07-29T19:08:36.700Z,25.51
2022-07-29T19:11:03.586Z,25.59
2022-07-29T19:13:30.977Z,25.49
2022-07-29T19:15:57.708Z,25.43
2022-07-29T19:18:24.755Z,25.32
2022-07-29T19:20:51.405Z,25.18
2022-07-29T19:23:18.501Z,25.21
2022-07-29T19:25:53.594Z,25.17
2022-07-29T19:28:21.373Z,25.13
2022-07-29T19:30:48.306Z,25.01
2022-07-29T19:33:17.499Z,24.89
2022-07-29T19:35:45.355Z,24.88
2022-07-29T19:38:11.983Z,24.90
2022-07-29T19:40:41.338Z,24.90
2022-07-29T19:43:50.586Z,24.93
2022-07-29T19:45:55.131Z,25.02
2022-07-29T19:48:21.728Z,25.09
2022-07-29T19:50:48.312Z,24.98
2022-07-29T19:53:15.004Z,25.16
2022-07-29T19:55:42.470Z,25.18
2022-07-29T19:58:09.319Z,25.15
2022-07-29T20:00:35.977Z,25.12
2022-07-29T20:03:04.702Z,25.10
2022-07-29T20:05:31.591Z,25.10
2022-07-29T20:07:58.638Z,25.15
2022-07-29T20:10:25.580Z,25.10
2022-07-29T20:12:53.907Z,25.03
2022-07-29T20:15:22.201Z,25.05
2022-07-29T20:17:48.808Z,25.05
2022-07-29T20:20:15.407Z,24.97
2022-07-29T20:22:42.104Z,24.83
2022-07-29T20:25:09.974Z,24.85
2022-07-29T20:27:39.398Z,24.85
2022-07-29T20:30:07.300Z,24.79
2022-07-29T20:32:35.009Z,24.75
2022-07-29T20:35:01.706Z,24.74
2022-07-29T20:37:28.366Z,24.65
2022-07-29T20:39:54.984Z,24.67
2022-07-29T20:42:21.641Z,24.70
2022-07-29T20:44:50.695Z,24.69
2022-07-29T20:47:17.377Z,24.60
2022-07-29T20:49:44.138Z,24.54
2022-07-29T20:52:10.769Z,24.33
2022-07-29T20:54:37.420Z,24.39
2022-07-29T20:57:04.291Z,24.36
2022-07-29T20:59:30.852Z,24.39
2022-07-29T21:01:57.620Z,24.47
2022-07-29T21:04:30.603Z,24.39
2022-07-29T21:06:58.153Z,24.37
2022-07-29T21:09:24.913Z,24.40
2022-07-29T21:11:51.568Z,24.33
2022-07-29T21:14:38.142Z,24.37
2022-07-29T21:17:07.140Z,24.32
2022-07-29T21:19:34.719Z,24.32
2022-07-29T21:22:01.514Z,24.34
2022-07-29T21:24:28.136Z,24.32
2022-07-29T21:27:20.765Z,24.24
2022-07-29T21:29:48.380Z,24.05
2022-07-29T21:32:28.430Z,24.05
2022-07-29T21:34:56.779Z,24.00
2022-07-29T21:37:23.436Z,23.94
2022-07-29T21:39:50.063Z,23.89
2022-07-29T21:42:16.958Z,23.85
2022-07-29T21:44:44.087Z,23.79
2022-07-29T21:47:11.833Z,23.68
2022-07-29T21:49:38.643Z,23.58
2022-07-29T21:52:05.721Z,23.47
2022-07-29T21:54:34.720Z,23.47
2022-07-29T21:57:01.487Z,23.44
2022-07-29T21:59:28.196Z,23.38
2022-07-29T22:01:54.921Z,23.27
2022-07-29T22:04:21.906Z,23.22
2022-07-29T22:06:48.615Z,23.25
2022-07-29T22:09:15.384Z,23.21
2022-07-29T22:11:42.531Z,23.12
2022-07-29T22:14:09.417Z,23.16
2022-07-29T22:16:36.177Z,23.08
2022-07-29T22:19:03.923Z,23.07
2022-07-29T22:21:30.973Z,22.97
2022-07-29T22:23:58.175Z,22.96
2022-07-29T22:26:24.860Z,22.98
2022-07-29T22:28:51.605Z,22.92
2022-07-29T22:31:18.741Z,22.99
2022-07-29T22:33:45.783Z,23.04
2022-07-29T22:36:12.633Z,23.01
2022-07-29T22:38:39.309Z,22.99
2022-07-29T22:41:05.999Z,22.97
2022-07-29T22:43:32.605Z,23.04
2022-07-29T22:45:59.434Z,23.05
2022-07-29T22:48:26.035Z,23.10
2022-07-29T22:50:52.709Z,23.13
2022-07-29T22:53:19.293Z,23.06
2022-07-29T22:55:45.960Z,23.10
2022-07-29T22:58:12.586Z,23.13
2022-07-29T23:00:39.301Z,23.08
2022-07-29T23:03:06.036Z,23.02
2022-07-29T23:05:32.842Z,23.09
2022-07-29T23:08:00.070Z,23.08
2022-07-29T23:10:26.942Z,23.10
2022-07-29T23:12:53.646Z,23.15
2022-07-29T23:15:20.275Z,23.12
2022-07-29T23:17:47.041Z,23.07
2022-07-29T23:20:14.797Z,23.09
2022-07-29T23:22:41.889Z,23.06
2022-07-29T23:25:08.901Z,22.98
2022-07-29T23:27:36.359Z,22.91
2022-07-29T23:30:04.932Z,22.97
2022-07-29T23:32:31.721Z,22.93
2022-07-29T23:34:58.349Z,23.00
2022-07-29T23:37:25.240Z,22.99
2022-07-29T23:39:53.732Z,22.97
2022-07-29T23:42:20.429Z,23.00
2022-07-29T23:44:47.101Z,22.93
2022-07-29T23:47:13.805Z,23.01
2022-07-29T23:49:40.469Z,22.92
2022-07-29T23:52:07.150Z,22.90
2022-07-29T23:54:33.957Z,22.91
2022-07-29T23:57:01.211Z,22.76
2022-07-29T23:59:28.078Z,22.79
